Hamilton Dome, Wyoming
Current Conditions -  °F | °C
As of 3:15 PM on Monday 20 Oct 2014 (Local Time) from KTBX Reporting Station
Clear Clear  
Wind Chill: 61°   Ceiling: Unl
Heat Index: 61°   Visibility: 10mi
Dew Point: 16°   Wind: 10mph
Humidity: 17%   Direction: 140°SE
Pressure: 30.18"   Gusts: NA
Location:  43.77°N, 108.57°W
Report Text: KTBX 202115Z AUTO 14009KT 10SM CLR 16/M09 A3018 RMK AO2
Loading
Personal Weather Stations






























Interactive Weather Map
Tropical Storm Tracking
New forecast layout! Learn more

10-Day Weather Forecast

Advertisements
Track Severe Weather on mobile